createdAt,value
2022-12-22T00:00:14.507Z,100051.56
2022-12-22T00:02:41.906Z,100045.66
2022-12-22T00:05:09.338Z,100044.47
2022-12-22T00:10:34.995Z,100037.75
2022-12-22T00:13:01.421Z,100034.56
2022-12-22T00:15:29.723Z,100036.09
2022-12-22T00:17:56.156Z,100030.91
2022-12-22T00:20:24.470Z,100023.44
2022-12-22T00:25:46.569Z,100032.50
2022-12-22T00:28:13.031Z,100022.66
2022-12-22T00:30:42.289Z,100016.28
2022-12-22T00:33:10.663Z,100013.09
2022-12-22T00:35:38.949Z,100020.66
2022-12-22T00:40:53.706Z,100017.41
2022-12-22T00:43:20.962Z,100015.84
2022-12-22T00:45:50.201Z,100017.06
2022-12-22T00:48:16.695Z,100015.03
2022-12-22T00:50:45.067Z,100011.84
2022-12-22T00:55:58.355Z,100010.25
2022-12-22T00:58:24.697Z,100006.69
2022-12-22T01:00:52.942Z,100016.25
2022-12-22T01:03:22.907Z,100009.88
2022-12-22T01:05:49.435Z,100007.50
2022-12-22T01:11:11.733Z,100009.06
2022-12-22T01:13:38.208Z,100017.06
2022-12-22T01:16:06.603Z,100012.28
2022-12-22T01:18:33.073Z,100011.44
2022-12-22T01:21:01.348Z,100001.91
2022-12-22T01:26:14.483Z,99998.34
2022-12-22T01:28:40.926Z,100005.09
2022-12-22T01:31:09.291Z,99995.53
2022-12-22T01:33:35.820Z,99999.56
2022-12-22T01:36:04.153Z,99999.53
2022-12-22T01:41:16.626Z,100001.53
2022-12-22T01:43:45.802Z,100005.13
2022-12-22T01:46:14.156Z,100000.38
2022-12-22T01:48:40.605Z,99996.81
2022-12-22T01:51:09.774Z,100002.72
2022-12-22T01:56:30.117Z,99990.84
2022-12-22T01:58:59.356Z,99996.78
2022-12-22T02:01:27.772Z,99997.16
2022-12-22T02:03:54.362Z,99987.66
2022-12-22T02:06:20.863Z,99987.59
2022-12-22T02:11:33.017Z,99978.13
2022-12-22T02:13:59.401Z,99986.88
2022-12-22T02:16:28.669Z,99984.50
2022-12-22T02:18:55.180Z,99989.22
2022-12-22T02:21:23.451Z,99998.78
2022-12-22T02:26:46.595Z,100000.06
2022-12-22T02:29:13.017Z,100001.19
2022-12-22T02:31:42.251Z,99997.19
2022-12-22T02:34:08.771Z,100003.94
2022-12-22T02:36:37.067Z,99996.81
2022-12-22T02:41:47.593Z,100001.19
2022-12-22T02:44:14.032Z,100001.19
2022-12-22T02:46:42.348Z,100014.69
2022-12-22T02:49:10.664Z,100003.94
2022-12-22T02:51:39.878Z,100008.69
2022-12-22T02:56:50.467Z,100000.41
2022-12-22T02:59:16.910Z,100006.34
2022-12-22T03:01:43.560Z,100005.16
2022-12-22T03:04:10.143Z,100003.16
2022-12-22T03:06:37.387Z,99997.66
2022-12-22T03:12:00.524Z,99991.69
2022-12-22T03:14:26.941Z,99988.53
2022-12-22T03:16:54.198Z,99995.66
2022-12-22T03:19:22.477Z,100009.88
2022-12-22T03:21:48.855Z,100001.94
2022-12-22T03:27:09.136Z,99999.56
2022-12-22T03:29:35.643Z,100002.78
2022-12-22T03:32:02.147Z,100001.53
2022-12-22T03:34:28.588Z,99989.28
2022-12-22T03:36:54.965Z,99989.69
2022-12-22T03:42:07.085Z,99994.41
2022-12-22T03:44:33.449Z,99994.06
2022-12-22T03:46:59.957Z,99991.69
2022-12-22T03:49:27.251Z,99990.88
2022-12-22T03:51:54.485Z,99998.38
2022-12-22T03:57:17.605Z,99986.13
2022-12-22T03:59:43.946Z,99978.19
2022-12-22T04:02:11.318Z,99978.91
2022-12-22T04:04:37.720Z,99978.53
2022-12-22T04:07:04.105Z,99972.19
2022-12-22T04:12:24.690Z,99959.53
2022-12-22T04:14:51.128Z,99965.47
2022-12-22T04:17:17.573Z,99964.72
2022-12-22T04:19:44.009Z,99961.88
2022-12-22T04:22:11.265Z,99963.44
2022-12-22T04:27:22.694Z,99957.47
2022-12-22T04:29:49.093Z,99945.63
2022-12-22T04:32:15.621Z,99949.94
2022-12-22T04:34:43.910Z,99945.53
2022-12-22T04:37:17.124Z,99937.66
2022-12-22T04:42:30.175Z,99938.88
2022-12-22T04:44:56.517Z,99938.78
2022-12-22T04:47:22.932Z,99945.22
2022-12-22T04:49:49.287Z,99941.66
2022-12-22T04:52:15.696Z,99952.78
2022-12-22T04:54:42.076Z,99938.88
2022-12-22T04:57:08.492Z,99942.44
2022-12-22T04:59:34.894Z,99923.41
2022-12-22T05:02:01.368Z,99932.09
2022-12-22T05:04:28.702Z,99922.53
2022-12-22T05:06:55.184Z,99925.59
2022-12-22T05:09:21.546Z,99918.44
2022-12-22T05:11:47.920Z,99924.44
2022-12-22T05:14:14.274Z,99923.69
2022-12-22T05:16:40.673Z,99925.22
2022-12-22T05:19:07.077Z,99926.47
2022-12-22T05:21:36.188Z,99930.91
2022-12-22T05:24:02.699Z,99937.75
2022-12-22T05:26:30.153Z,99939.38
2022-12-22T05:28:56.620Z,99928.31
2022-12-22T05:31:23.168Z,99931.50
2022-12-22T05:33:50.643Z,99931.50
2022-12-22T05:36:17.181Z,99921.94
2022-12-22T05:38:43.657Z,99933.81
2022-12-22T05:41:11.029Z,99935.38
2022-12-22T05:43:37.544Z,99936.63
2022-12-22T05:46:04.991Z,99926.72
2022-12-22T05:48:37.531Z,99927.50
2022-12-22T05:51:05.331Z,99929.09
2022-12-22T05:53:32.749Z,99935.41
2022-12-22T05:55:59.205Z,99941.75
2022-12-22T05:58:26.586Z,99942.19
2022-12-22T06:00:53.030Z,99939.41
2022-12-22T06:03:19.765Z,99948.19
2022-12-22T06:05:46.690Z,99950.56
2022-12-22T06:08:14.293Z,99945.81
2022-12-22T06:10:41.940Z,99954.13
2022-12-22T06:16:03.143Z,99955.31
2022-12-22T06:18:30.544Z,99959.75
2022-12-22T06:20:56.951Z,99956.09
2022-12-22T06:23:23.435Z,99959.69
2022-12-22T06:25:49.902Z,99960.84
2022-12-22T06:31:11.294Z,99962.56
2022-12-22T06:33:37.804Z,99964.53
2022-12-22T06:36:05.203Z,99960.22
2022-12-22T06:38:32.641Z,99968.56
2022-12-22T06:40:59.103Z,99967.75
2022-12-22T06:46:10.386Z,99964.56
2022-12-22T06:48:36.926Z,99961.81
2022-12-22T06:51:04.381Z,99961.03
2022-12-22T06:53:31.767Z,99977.25
2022-12-22T06:55:58.194Z,99966.97
2022-12-22T07:01:18.570Z,99968.59
2022-12-22T07:03:46.036Z,99977.66
2022-12-22T07:06:12.501Z,99974.56
2022-12-22T07:08:39.943Z,99971.38
2022-12-22T07:11:06.630Z,99965.44
2022-12-22T07:16:28.825Z,99961.91
2022-12-22T07:18:56.374Z,99959.53
2022-12-22T07:21:23.809Z,99969.09
2022-12-22T07:23:50.289Z,99958.38
2022-12-22T07:26:16.761Z,99960.34
2022-12-22T07:31:28.349Z,99951.59
2022-12-22T07:33:54.853Z,99949.28
2022-12-22T07:36:22.239Z,99937.28
2022-12-22T07:38:49.695Z,99930.53
2022-12-22T07:41:17.096Z,99921.41
2022-12-22T07:46:39.668Z,99941.22
2022-12-22T07:49:06.522Z,99932.06
2022-12-22T07:51:33.934Z,99925.34
2022-12-22T07:54:00.423Z,99938.06
2022-12-22T07:56:26.906Z,99928.88
2022-12-22T08:01:47.503Z,99926.66
2022-12-22T08:04:15.081Z,99922.34
2022-12-22T08:06:42.519Z,99918.38
2022-12-22T08:09:08.978Z,99914.75
2022-12-22T08:11:35.466Z,99906.81
2022-12-22T08:16:46.212Z,99904.03
2022-12-22T08:19:13.881Z,99902.09
2022-12-22T08:21:45.315Z,99898.53
2022-12-22T08:24:16.683Z,99895.31
2022-12-22T08:26:44.150Z,99895.69
2022-12-22T08:31:56.422Z,99886.25
2022-12-22T08:34:22.950Z,99892.94
2022-12-22T08:36:49.430Z,99891.34
2022-12-22T08:39:15.887Z,99890.56
2022-12-22T08:41:42.343Z,99878.63
2022-12-22T08:47:02.975Z,99879.44
2022-12-22T08:49:29.448Z,99880.63
2022-12-22T08:51:55.933Z,99883.78
2022-12-22T08:54:22.474Z,99881.75
2022-12-22T08:56:48.958Z,99878.63
2022-12-22T09:02:00.489Z,99880.63
2022-12-22T09:04:27.039Z,99880.94
2022-12-22T09:06:53.585Z,99886.06
2022-12-22T09:09:20.970Z,99883.69
2022-12-22T09:11:47.484Z,99884.53
2022-12-22T09:17:08.191Z,99896.47
2022-12-22T09:19:34.703Z,99897.34
2022-12-22T09:22:02.084Z,99886.16
2022-12-22T09:24:28.546Z,99894.09
2022-12-22T09:26:55.038Z,99884.16
2022-12-22T09:32:06.680Z,99871.44
2022-12-22T09:34:33.189Z,99883.19
2022-12-22T09:37:00.655Z,99883.09
2022-12-22T09:39:29.393Z,99877.22
2022-12-22T09:41:57.061Z,99869.72
2022-12-22T09:47:19.743Z,99862.63
2022-12-22T09:49:46.240Z,99853.53
2022-12-22T09:52:14.525Z,99846.03
2022-12-22T09:54:41.080Z,99840.28
2022-12-22T09:57:07.583Z,99841.19
2022-12-22T10:02:29.468Z,99819.94
2022-12-22T10:04:56.060Z,99813.16
2022-12-22T10:07:23.544Z,99803.25
2022-12-22T10:09:52.104Z,99814.69
2022-12-22T10:12:19.724Z,99806.31
2022-12-22T10:17:31.043Z,99803.59
2022-12-22T10:19:57.513Z,99798.84
2022-12-22T10:22:24.028Z,99798.03
2022-12-22T10:24:51.468Z,99799.63
2022-12-22T10:27:20.944Z,99788.13
2022-12-22T10:32:33.835Z,99770.25
2022-12-22T10:35:01.230Z,99771.50
2022-12-22T10:37:28.672Z,99782.56
2022-12-22T10:39:56.331Z,99777.84
2022-12-22T10:42:22.794Z,99777.84
2022-12-22T10:47:43.118Z,99773.06
2022-12-22T10:50:09.629Z,99767.88
2022-12-22T10:52:36.165Z,99761.56
2022-12-22T10:55:02.671Z,99760.41
2022-12-22T10:57:29.156Z,99750.09
2022-12-22T10:59:55.683Z,99747.69
2022-12-22T11:02:22.379Z,99736.97
2022-12-22T11:04:49.069Z,99739.34
2022-12-22T11:07:16.490Z,99737.41
2022-12-22T11:09:43.013Z,99728.25
2022-12-22T11:12:09.576Z,99728.66
2022-12-22T11:14:37.046Z,99736.63
2022-12-22T11:17:03.604Z,99733.06
2022-12-22T11:19:30.167Z,99733.47
2022-12-22T11:21:57.606Z,99734.25
2022-12-22T11:24:24.108Z,99725.16
2022-12-22T11:26:51.548Z,99716.03
2022-12-22T11:29:18.067Z,99722.38
2022-12-22T11:31:44.617Z,99723.16
2022-12-22T11:34:17.315Z,99714.81
2022-12-22T11:36:47.330Z,99707.72
2022-12-22T11:39:14.710Z,99695.41
2022-12-22T11:41:41.225Z,99682.75
2022-12-22T11:44:07.772Z,99679.97
2022-12-22T11:46:34.302Z,99692.25
2022-12-22T11:49:00.894Z,99691.84
2022-12-22T11:51:28.824Z,99679.97
2022-12-22T11:53:55.873Z,99678.38
2022-12-22T11:56:23.240Z,99666.50
2022-12-22T11:58:50.693Z,99666.50
2022-12-22T12:01:25.681Z,99671.66
2022-12-22T12:03:53.575Z,99678.38
2022-12-22T12:06:20.099Z,99680.38
2022-12-22T12:08:46.571Z,99681.16
2022-12-22T12:11:14.047Z,99672.41
2022-12-22T12:13:40.815Z,99670.06
2022-12-22T12:16:07.320Z,99664.50
2022-12-22T12:18:33.857Z,99656.56
2022-12-22T12:21:00.334Z,99650.59
2022-12-22T12:23:26.835Z,99652.94
2022-12-22T12:25:54.356Z,99649.00
2022-12-22T12:28:21.751Z,99644.66
2022-12-22T12:30:48.223Z,99643.91
2022-12-22T12:35:59.507Z,99649.44
2022-12-22T12:39:05.575Z,99637.50
2022-12-22T12:41:14.296Z,99631.56
2022-12-22T12:43:40.754Z,99627.66
2022-12-22T12:46:08.208Z,99622.88
2022-12-22T12:51:18.740Z,99615.75
2022-12-22T12:53:45.208Z,99620.94
2022-12-22T12:56:11.748Z,99625.66
2022-12-22T12:58:38.251Z,99622.84
2022-12-22T13:01:04.766Z,99627.19
2022-12-22T13:06:26.139Z,99632.44
2022-12-22T13:08:53.300Z,99633.28
2022-12-22T13:11:52.624Z,99636.06
2022-12-22T13:14:11.525Z,99630.06
2022-12-22T13:16:38.067Z,99630.47
2022-12-22T13:21:59.157Z,99629.34
2022-12-22T13:24:27.158Z,99634.91
2022-12-22T13:26:54.360Z,99632.13
2022-12-22T13:29:21.800Z,99629.72
2022-12-22T13:31:48.625Z,99615.47
2022-12-22T13:37:01.802Z,99610.69
2022-12-22T13:39:28.264Z,99622.59
2022-12-22T13:41:54.786Z,99613.09
2022-12-22T13:44:22.202Z,99619.03
2022-12-22T13:46:48.776Z,99617.06
2022-12-22T13:52:05.037Z,99602.78
2022-12-22T13:54:32.014Z,99605.16
2022-12-22T13:56:58.667Z,99596.81
2022-12-22T13:59:25.126Z,99601.56
2022-12-22T14:01:51.961Z,99604.75
2022-12-22T14:07:03.539Z,99592.03
2022-12-22T14:09:30.916Z,99579.34
2022-12-22T14:11:57.580Z,99571.44
2022-12-22T14:14:24.103Z,99565.53
2022-12-22T14:16:50.668Z,99572.66
2022-12-22T14:22:11.365Z,99570.66
2022-12-22T14:24:39.026Z,99557.56
2022-12-22T14:27:05.534Z,99556.44
2022-12-22T14:29:31.990Z,99557.56
2022-12-22T14:31:59.476Z,99555.63
2022-12-22T14:37:11.230Z,99546.84
2022-12-22T14:39:37.705Z,99548.06
2022-12-22T14:42:04.207Z,99555.59
2022-12-22T14:44:30.686Z,99542.94
2022-12-22T14:46:57.319Z,99543.28
2022-12-22T14:52:08.867Z,99526.28
2022-12-22T14:54:35.337Z,99537.31
2022-12-22T14:57:03.038Z,99555.59
2022-12-22T14:59:29.523Z,99550.00
2022-12-22T15:01:57.054Z,99556.75
2022-12-22T15:07:54.309Z,99542.16
2022-12-22T15:10:15.079Z,99536.91
2022-12-22T15:12:41.933Z,99529.78
2022-12-22T15:15:08.389Z,99534.59
2022-12-22T15:17:35.165Z,99530.63
2022-12-22T15:22:56.496Z,99529.06
2022-12-22T15:25:22.971Z,99527.41
2022-12-22T15:27:50.379Z,99530.63
2022-12-22T15:30:17.811Z,99534.59
2022-12-22T15:32:45.212Z,99528.63
2022-12-22T15:38:07.659Z,99519.94
2022-12-22T15:40:34.198Z,99524.69
2022-12-22T15:43:01.663Z,99519.91
2022-12-22T15:45:29.056Z,99521.50
2022-12-22T15:47:56.453Z,99518.38
2022-12-22T15:53:07.220Z,99509.28
2022-12-22T15:55:34.654Z,99504.50
2022-12-22T15:58:03.754Z,99502.91
2022-12-22T16:00:31.103Z,99516.75
2022-12-22T16:02:58.034Z,99504.84
2022-12-22T16:08:13.029Z,99490.63
2022-12-22T16:10:45.005Z,99482.31
2022-12-22T16:13:11.645Z,99478.75
2022-12-22T16:15:38.996Z,99476.75
2022-12-22T16:18:05.496Z,99481.47
2022-12-22T16:23:27.075Z,99472.59
2022-12-22T16:26:00.641Z,99477.75
2022-12-22T16:28:29.376Z,99471.84
2022-12-22T16:30:55.902Z,99465.19
2022-12-22T16:33:22.380Z,99459.97
2022-12-22T16:38:44.050Z,99456.28
2022-12-22T16:41:10.593Z,99464.94
2022-12-22T16:43:48.964Z,99461.06
2022-12-22T16:46:15.497Z,99459.88
2022-12-22T16:48:43.004Z,99460.28
2022-12-22T16:53:53.700Z,99469.06
2022-12-22T16:56:21.096Z,99461.53
2022-12-22T16:58:47.621Z,99459.88
2022-12-22T17:01:15.034Z,99465.22
2022-12-22T17:03:41.542Z,99467.91
2022-12-22T17:08:52.424Z,99458.09
2022-12-22T17:11:18.897Z,99462.47
2022-12-22T17:13:45.463Z,99449.81
2022-12-22T17:16:12.961Z,99444.97
2022-12-22T17:18:39.504Z,99445.03
2022-12-22T17:23:50.748Z,99435.16
2022-12-22T17:26:18.137Z,99437.06
2022-12-22T17:28:45.539Z,99436.28
2022-12-22T17:31:12.076Z,99436.25
2022-12-22T17:33:39.520Z,99432.06
2022-12-22T17:38:50.149Z,99434.00
2022-12-22T17:41:16.642Z,99434.38
2022-12-22T17:43:44.096Z,99433.25
2022-12-22T17:46:10.638Z,99435.09
2022-12-22T17:48:38.052Z,99430.00
2022-12-22T17:53:58.494Z,99426.56
2022-12-22T17:56:24.964Z,99427.75
2022-12-22T17:58:51.456Z,99424.66
2022-12-22T18:01:18.134Z,99423.09
2022-12-22T18:03:44.720Z,99417.84
2022-12-22T18:08:56.251Z,99423.03
2022-12-22T18:11:22.753Z,99407.59
2022-12-22T18:13:49.258Z,99398.38
2022-12-22T18:16:15.801Z,99390.88
2022-12-22T18:18:43.317Z,99386.97
2022-12-22T18:23:53.847Z,99385.75
2022-12-22T18:26:21.252Z,99387.22
2022-12-22T18:28:47.716Z,99386.84
2022-12-22T18:31:14.227Z,99388.66
2022-12-22T18:33:41.733Z,99381.03
2022-12-22T18:38:53.227Z,99384.94
2022-12-22T18:41:19.745Z,99382.50
2022-12-22T18:43:46.192Z,99377.72
2022-12-22T18:46:12.824Z,99374.88
2022-12-22T18:48:39.383Z,99382.00
2022-12-22T18:51:05.902Z,99386.41
2022-12-22T18:53:32.564Z,99386.34
2022-12-22T18:55:59.928Z,99383.13
2022-12-22T18:58:26.383Z,99374.03
2022-12-22T19:00:53.180Z,99369.59
2022-12-22T19:03:20.747Z,99368.47
2022-12-22T19:05:47.296Z,99367.25
2022-12-22T19:08:13.827Z,99359.28
2022-12-22T19:10:40.315Z,99365.75
2022-12-22T19:13:07.744Z,99366.25
2022-12-22T19:15:34.212Z,99355.56
2022-12-22T19:18:00.982Z,99350.06
2022-12-22T19:20:28.427Z,99346.53
2022-12-22T19:22:54.896Z,99350.84
2022-12-22T19:25:21.383Z,99351.63
2022-12-22T19:27:48.777Z,99348.06
2022-12-22T19:30:16.182Z,99346.94
2022-12-22T19:32:43.644Z,99349.31
2022-12-22T19:35:11.125Z,99346.06
2022-12-22T19:37:37.596Z,99346.94
2022-12-22T19:40:04.986Z,99353.63
2022-12-22T19:42:32.424Z,99348.06
2022-12-22T19:45:02.894Z,99359.25
2022-12-22T19:47:31.939Z,99354.38
2022-12-22T19:49:59.448Z,99348.84
2022-12-22T19:52:26.845Z,99342.09
2022-12-22T19:54:53.296Z,99347.66
2022-12-22T19:57:20.718Z,99347.31
2022-12-22T19:59:48.121Z,99347.22
2022-12-22T20:02:15.798Z,99338.91
2022-12-22T20:04:43.344Z,99339.31
2022-12-22T20:07:10.710Z,99328.81
2022-12-22T20:09:38.137Z,99330.72
2022-12-22T20:12:05.550Z,99325.22
2022-12-22T20:14:32.184Z,99326.72
2022-12-22T20:16:58.704Z,99324.81
2022-12-22T20:19:26.225Z,99319.19
2022-12-22T20:21:52.696Z,99322.69
2022-12-22T20:27:04.197Z,99316.22
2022-12-22T20:29:30.703Z,99319.22
2022-12-22T20:31:57.208Z,99320.38
2022-12-22T20:34:23.706Z,99311.97
2022-12-22T20:36:51.070Z,99313.47
2022-12-22T20:42:02.383Z,99315.63
2022-12-22T20:44:29.778Z,99316.75
2022-12-22T20:46:56.260Z,99311.19
2022-12-22T20:49:22.722Z,99311.84
2022-12-22T20:51:50.123Z,99317.78
2022-12-22T20:57:01.723Z,99311.38
2022-12-22T20:59:30.551Z,99312.16
2022-12-22T21:01:58.152Z,99317.72
2022-12-22T21:04:25.698Z,99317.63
2022-12-22T21:06:52.131Z,99321.91
2022-12-22T21:12:03.525Z,99321.50
2022-12-22T21:14:30.034Z,99309.16
2022-12-22T21:16:57.518Z,99315.22
2022-12-22T21:19:24.995Z,99313.16
2022-12-22T21:21:53.336Z,99309.41
2022-12-22T21:27:16.894Z,99311.75
2022-12-22T21:29:43.465Z,99307.88
2022-12-22T21:32:09.942Z,99307.09
2022-12-22T21:34:36.382Z,99306.22
2022-12-22T21:37:03.938Z,99302.03
2022-12-22T21:42:15.379Z,99299.16
2022-12-22T21:44:42.778Z,99294.78
2022-12-22T21:47:09.217Z,99303.50
2022-12-22T21:49:35.690Z,99300.63
2022-12-22T21:52:03.115Z,99296.38
2022-12-22T21:57:24.760Z,99293.41
2022-12-22T21:59:51.234Z,99294.94
2022-12-22T22:02:18.787Z,99299.66
2022-12-22T22:04:52.129Z,99296.34
2022-12-22T22:07:20.920Z,99301.81
2022-12-22T22:12:43.324Z,99291.75
2022-12-22T22:15:10.627Z,99303.81
2022-12-22T22:17:37.964Z,99294.84
2022-12-22T22:20:04.562Z,99300.00
2022-12-22T22:22:31.075Z,99293.41
2022-12-22T22:27:47.336Z,99292.28
2022-12-22T22:30:15.121Z,99292.63
2022-12-22T22:32:41.635Z,99290.34
2022-12-22T22:35:08.089Z,99283.28
2022-12-22T22:37:34.578Z,99290.19
2022-12-22T22:42:46.446Z,99302.81
2022-12-22T22:45:13.791Z,99305.66
2022-12-22T22:47:40.216Z,99292.97
2022-12-22T22:50:07.576Z,99294.63
2022-12-22T22:52:34.868Z,99287.06
2022-12-22T22:57:56.301Z,99295.47
2022-12-22T23:00:23.747Z,99291.19
2022-12-22T23:02:52.180Z,99293.91
2022-12-22T23:05:23.052Z,99284.88
2022-12-22T23:07:49.803Z,99279.44
2022-12-22T23:13:01.126Z,99281.72
2022-12-22T23:15:27.608Z,99286.50
2022-12-22T23:17:54.841Z,99288.81
2022-12-22T23:20:21.356Z,99282.13
2022-12-22T23:22:47.825Z,99291.66
2022-12-22T23:25:14.264Z,99295.91
2022-12-22T23:27:42.576Z,99286.91
2022-12-22T23:30:09.128Z,99292.56
2022-12-22T23:32:35.614Z,99302.84
2022-12-22T23:35:02.044Z,99288.53
2022-12-22T23:37:28.448Z,99291.66
2022-12-22T23:39:56.201Z,99288.63
2022-12-22T23:42:28.313Z,99289.34
2022-12-22T23:44:54.731Z,99293.41
2022-12-22T23:47:21.122Z,99286.25
2022-12-22T23:49:49.410Z,99294.94
2022-12-22T23:52:15.899Z,99294.59
2022-12-22T23:54:42.342Z,99289.34
2022-12-22T23:57:09.587Z,99287.78
2022-12-22T23:59:36.024Z,99296.97
